sensor_id;sensor_type;location;lat;lon;timestamp;P1;P2;P0
39955;PMS5003;25631;51.516;-0.470;2023-12-22T00:00:25;4;2;
39955;PMS5003;25631;51.516;-0.470;2023-12-22T00:03:02;4;2;
39955;PMS5003;25631;51.516;-0.470;2023-12-22T00:05:38;3;2;
39955;PMS5003;25631;51.516;-0.470;2023-12-22T00:08:15;7;5;
39955;PMS5003;25631;51.516;-0.470;2023-12-22T00:10:51;8;5;
39955;PMS5003;25631;51.516;-0.470;2023-12-22T00:13:27;5;4;
39955;PMS5003;25631;51.516;-0.470;2023-12-22T00:16:04;5;4;
39955;PMS5003;25631;51.516;-0.470;2023-12-22T00:18:41;4;2;
39955;PMS5003;25631;51.516;-0.470;2023-12-22T00:21:17;5;3;
39955;PMS5003;25631;51.516;-0.470;2023-12-22T00:23:54;6;3;
39955;PMS5003;25631;51.516;-0.470;2023-12-22T00:26:30;4;3;
39955;PMS5003;25631;51.516;-0.470;2023-12-22T00:29:06;2;2;
39955;PMS5003;25631;51.516;-0.470;2023-12-22T00:31:43;7;4;
39955;PMS5003;25631;51.516;-0.470;2023-12-22T00:34:21;9;7;
39955;PMS5003;25631;51.516;-0.470;2023-12-22T00:36:57;8;6;
39955;PMS5003;25631;51.516;-0.470;2023-12-22T00:39:34;6;6;
39955;PMS5003;25631;51.516;-0.470;2023-12-22T00:42:10;8;7;
39955;PMS5003;25631;51.516;-0.470;2023-12-22T00:44:47;12;8;
39955;PMS5003;25631;51.516;-0.470;2023-12-22T00:47:24;6;3;
39955;PMS5003;25631;51.516;-0.470;2023-12-22T00:50:00;6;4;
39955;PMS5003;25631;51.516;-0.470;2023-12-22T00:52:37;5;4;
39955;PMS5003;25631;51.516;-0.470;2023-12-22T00:55:13;4;3;
39955;PMS5003;25631;51.516;-0.470;2023-12-22T00:57:49;3;2;
39955;PMS5003;25631;51.516;-0.470;2023-12-22T01:00:26;6;4;
39955;PMS5003;25631;51.516;-0.470;2023-12-22T01:03:03;6;5;
39955;PMS5003;25631;51.516;-0.470;2023-12-22T01:05:39;11;4;
39955;PMS5003;25631;51.516;-0.470;2023-12-22T01:08:16;2;2;
39955;PMS5003;25631;51.516;-0.470;2023-12-22T01:10:52;4;3;
39955;PMS5003;25631;51.516;-0.470;2023-12-22T01:13:29;6;5;
39955;PMS5003;25631;51.516;-0.470;2023-12-22T01:16:05;12;9;
39955;PMS5003;25631;51.516;-0.470;2023-12-22T01:18:42;12;8;
39955;PMS5003;25631;51.516;-0.470;2023-12-22T01:21:18;4;4;
39955;PMS5003;25631;51.516;-0.470;2023-12-22T01:23:55;5;5;
39955;PMS5003;25631;51.516;-0.470;2023-12-22T01:26:31;6;4;
39955;PMS5003;25631;51.516;-0.470;2023-12-22T01:29:07;5;3;
39955;PMS5003;25631;51.516;-0.470;2023-12-22T01:31:43;5;4;
39955;PMS5003;25631;51.516;-0.470;2023-12-22T01:34:20;6;4;
39955;PMS5003;25631;51.516;-0.470;2023-12-22T01:36:56;6;3;
39955;PMS5003;25631;51.516;-0.470;2023-12-22T01:39:33;8;5;
39955;PMS5003;25631;51.516;-0.470;2023-12-22T01:42:09;7;4;
39955;PMS5003;25631;51.516;-0.470;2023-12-22T01:44:46;7;4;
39955;PMS5003;25631;51.516;-0.470;2023-12-22T01:47:22;10;6;
39955;PMS5003;25631;51.516;-0.470;2023-12-22T01:49:59;9;8;
39955;PMS5003;25631;51.516;-0.470;2023-12-22T01:52:36;6;6;
39955;PMS5003;25631;51.516;-0.470;2023-12-22T01:55:13;5;4;
39955;PMS5003;25631;51.516;-0.470;2023-12-22T01:57:51;6;4;
39955;PMS5003;25631;51.516;-0.470;2023-12-22T02:00:27;5;4;
39955;PMS5003;25631;51.516;-0.470;2023-12-22T02:03:03;6;4;
39955;PMS5003;25631;51.516;-0.470;2023-12-22T02:05:40;5;3;
39955;PMS5003;25631;51.516;-0.470;2023-12-22T02:08:17;4;2;
39955;PMS5003;25631;51.516;-0.470;2023-12-22T02:10:54;4;2;
39955;PMS5003;25631;51.516;-0.470;2023-12-22T02:13:31;6;3;
39955;PMS5003;25631;51.516;-0.470;2023-12-22T02:16:10;12;8;
39955;PMS5003;25631;51.516;-0.470;2023-12-22T02:18:55;9;7;
39955;PMS5003;25631;51.516;-0.470;2023-12-22T02:21:33;5;3;
39955;PMS5003;25631;51.516;-0.470;2023-12-22T02:24:10;6;4;
39955;PMS5003;25631;51.516;-0.470;2023-12-22T02:26:47;6;4;
39955;PMS5003;25631;51.516;-0.470;2023-12-22T02:29:23;5;4;
39955;PMS5003;25631;51.516;-0.470;2023-12-22T02:32:02;5;4;
39955;PMS5003;25631;51.516;-0.470;2023-12-22T02:34:43;2;2;
39955;PMS5003;25631;51.516;-0.470;2023-12-22T02:37:22;2;2;
39955;PMS5003;25631;51.516;-0.470;2023-12-22T02:39:59;3;3;
39955;PMS5003;25631;51.516;-0.470;2023-12-22T02:42:38;4;3;
39955;PMS5003;25631;51.516;-0.470;2023-12-22T02:45:15;4;2;
39955;PMS5003;25631;51.516;-0.470;2023-12-22T02:47:53;7;5;
39955;PMS5003;25631;51.516;-0.470;2023-12-22T02:50:29;6;4;
39955;PMS5003;25631;51.516;-0.470;2023-12-22T02:53:06;4;3;
39955;PMS5003;25631;51.516;-0.470;2023-12-22T02:55:42;2;2;
39955;PMS5003;25631;51.516;-0.470;2023-12-22T02:58:19;3;2;
39955;PMS5003;25631;51.516;-0.470;2023-12-22T03:00:56;4;2;
39955;PMS5003;25631;51.516;-0.470;2023-12-22T03:03:32;5;3;
39955;PMS5003;25631;51.516;-0.470;2023-12-22T03:06:08;5;3;
39955;PMS5003;25631;51.516;-0.470;2023-12-22T03:08:45;7;5;
39955;PMS5003;25631;51.516;-0.470;2023-12-22T03:11:21;8;7;
39955;PMS5003;25631;51.516;-0.470;2023-12-22T03:13:57;6;5;
39955;PMS5003;25631;51.516;-0.470;2023-12-22T03:16:33;5;2;
39955;PMS5003;25631;51.516;-0.470;2023-12-22T03:19:10;5;2;
39955;PMS5003;25631;51.516;-0.470;2023-12-22T03:21:46;4;3;
39955;PMS5003;25631;51.516;-0.470;2023-12-22T03:24:24;4;3;
39955;PMS5003;25631;51.516;-0.470;2023-12-22T03:27:01;7;4;
39955;PMS5003;25631;51.516;-0.470;2023-12-22T03:29:38;5;4;
39955;PMS5003;25631;51.516;-0.470;2023-12-22T03:32:14;5;4;
39955;PMS5003;25631;51.516;-0.470;2023-12-22T03:34:50;7;3;
39955;PMS5003;25631;51.516;-0.470;2023-12-22T03:37:27;6;3;
39955;PMS5003;25631;51.516;-0.470;2023-12-22T03:40:03;4;3;
39955;PMS5003;25631;51.516;-0.470;2023-12-22T03:42:40;5;4;
39955;PMS5003;25631;51.516;-0.470;2023-12-22T03:45:17;5;4;
39955;PMS5003;25631;51.516;-0.470;2023-12-22T03:47:53;10;5;
39955;PMS5003;25631;51.516;-0.470;2023-12-22T03:50:29;10;6;
39955;PMS5003;25631;51.516;-0.470;2023-12-22T03:53:06;7;6;
39955;PMS5003;25631;51.516;-0.470;2023-12-22T03:55:42;8;4;
39955;PMS5003;25631;51.516;-0.470;2023-12-22T03:58:18;8;3;
39955;PMS5003;25631;51.516;-0.470;2023-12-22T04:00:55;11;3;
39955;PMS5003;25631;51.516;-0.470;2023-12-22T04:03:31;11;2;
39955;PMS5003;25631;51.516;-0.470;2023-12-22T04:06:08;9;2;
39955;PMS5003;25631;51.516;-0.470;2023-12-22T04:08:44;10;7;
39955;PMS5003;25631;51.516;-0.470;2023-12-22T04:11:20;7;5;
39955;PMS5003;25631;51.516;-0.470;2023-12-22T04:13:57;8;5;
39955;PMS5003;25631;51.516;-0.470;2023-12-22T04:16:34;8;4;
39955;PMS5003;25631;51.516;-0.470;2023-12-22T04:19:12;5;4;
39955;PMS5003;25631;51.516;-0.470;2023-12-22T04:21:48;4;4;
39955;PMS5003;25631;51.516;-0.470;2023-12-22T04:24:25;5;5;
39955;PMS5003;25631;51.516;-0.470;2023-12-22T04:27:01;4;3;
39955;PMS5003;25631;51.516;-0.470;2023-12-22T04:29:38;10;8;
39955;PMS5003;25631;51.516;-0.470;2023-12-22T04:32:15;11;8;
39955;PMS5003;25631;51.516;-0.470;2023-12-22T04:34:51;4;1;
39955;PMS5003;25631;51.516;-0.470;2023-12-22T04:37:27;6;2;
39955;PMS5003;25631;51.516;-0.470;2023-12-22T04:40:04;6;3;
39955;PMS5003;25631;51.516;-0.470;2023-12-22T04:42:41;8;5;
39955;PMS5003;25631;51.516;-0.470;2023-12-22T04:45:18;5;3;
39955;PMS5003;25631;51.516;-0.470;2023-12-22T04:47:54;5;2;
39955;PMS5003;25631;51.516;-0.470;2023-12-22T04:50:30;4;1;
39955;PMS5003;25631;51.516;-0.470;2023-12-22T04:53:07;5;2;
39955;PMS5003;25631;51.516;-0.470;2023-12-22T04:55:43;7;4;
39955;PMS5003;25631;51.516;-0.470;2023-12-22T04:58:20;5;3;
39955;PMS5003;25631;51.516;-0.470;2023-12-22T05:00:59;5;3;
39955;PMS5003;25631;51.516;-0.470;2023-12-22T05:03:36;9;5;
39955;PMS5003;25631;51.516;-0.470;2023-12-22T05:06:12;11;8;
39955;PMS5003;25631;51.516;-0.470;2023-12-22T05:08:48;4;3;
39955;PMS5003;25631;51.516;-0.470;2023-12-22T05:11:25;5;2;
39955;PMS5003;25631;51.516;-0.470;2023-12-22T05:14:01;4;3;
39955;PMS5003;25631;51.516;-0.470;2023-12-22T05:16:37;5;3;
39955;PMS5003;25631;51.516;-0.470;2023-12-22T05:19:14;5;3;
39955;PMS5003;25631;51.516;-0.470;2023-12-22T05:21:50;4;2;
39955;PMS5003;25631;51.516;-0.470;2023-12-22T05:24:27;3;1;
39955;PMS5003;25631;51.516;-0.470;2023-12-22T05:27:04;3;1;
39955;PMS5003;25631;51.516;-0.470;2023-12-22T05:29:40;4;4;
39955;PMS5003;25631;51.516;-0.470;2023-12-22T05:32:17;5;3;
39955;PMS5003;25631;51.516;-0.470;2023-12-22T05:34:53;6;6;
39955;PMS5003;25631;51.516;-0.470;2023-12-22T05:37:30;5;5;
39955;PMS5003;25631;51.516;-0.470;2023-12-22T05:40:06;5;4;
39955;PMS5003;25631;51.516;-0.470;2023-12-22T05:42:43;6;3;
39955;PMS5003;25631;51.516;-0.470;2023-12-22T05:45:20;6;3;
39955;PMS5003;25631;51.516;-0.470;2023-12-22T05:47:56;5;4;
39955;PMS5003;25631;51.516;-0.470;2023-12-22T05:50:32;2;2;
39955;PMS5003;25631;51.516;-0.470;2023-12-22T05:53:09;2;2;
39955;PMS5003;25631;51.516;-0.470;2023-12-22T05:55:45;1;0;
39955;PMS5003;25631;51.516;-0.470;2023-12-22T05:58:22;1;1;
39955;PMS5003;25631;51.516;-0.470;2023-12-22T06:00:58;1;1;
39955;PMS5003;25631;51.516;-0.470;2023-12-22T06:03:35;4;3;
39955;PMS5003;25631;51.516;-0.470;2023-12-22T06:06:12;4;3;
39955;PMS5003;25631;51.516;-0.470;2023-12-22T06:08:48;2;1;
39955;PMS5003;25631;51.516;-0.470;2023-12-22T06:11:25;2;1;
39955;PMS5003;25631;51.516;-0.470;2023-12-22T06:14:01;2;0;
39955;PMS5003;25631;51.516;-0.470;2023-12-22T06:16:38;1;1;
39955;PMS5003;25631;51.516;-0.470;2023-12-22T06:19:14;1;1;
39955;PMS5003;25631;51.516;-0.470;2023-12-22T06:21:51;4;3;
39955;PMS5003;25631;51.516;-0.470;2023-12-22T06:24:27;3;2;
39955;PMS5003;25631;51.516;-0.470;2023-12-22T06:27:04;2;2;
39955;PMS5003;25631;51.516;-0.470;2023-12-22T06:29:40;1;1;
39955;PMS5003;25631;51.516;-0.470;2023-12-22T06:32:16;1;0;
39955;PMS5003;25631;51.516;-0.470;2023-12-22T06:34:53;1;0;
39955;PMS5003;25631;51.516;-0.470;2023-12-22T06:37:29;4;3;
39955;PMS5003;25631;51.516;-0.470;2023-12-22T06:40:06;5;3;
39955;PMS5003;25631;51.516;-0.470;2023-12-22T06:42:43;3;2;
39955;PMS5003;25631;51.516;-0.470;2023-12-22T06:45:19;3;2;
39955;PMS5003;25631;51.516;-0.470;2023-12-22T06:47:56;3;2;
39955;PMS5003;25631;51.516;-0.470;2023-12-22T06:50:32;4;3;
39955;PMS5003;25631;51.516;-0.470;2023-12-22T06:53:10;2;1;
39955;PMS5003;25631;51.516;-0.470;2023-12-22T06:55:46;2;1;
39955;PMS5003;25631;51.516;-0.470;2023-12-22T06:58:23;2;1;
39955;PMS5003;25631;51.516;-0.470;2023-12-22T07:00:59;2;1;
39955;PMS5003;25631;51.516;-0.470;2023-12-22T07:03:36;4;3;
39955;PMS5003;25631;51.516;-0.470;2023-12-22T07:06:13;4;2;
39955;PMS5003;25631;51.516;-0.470;2023-12-22T07:09:55;3;2;
39955;PMS5003;25631;51.516;-0.470;2023-12-22T07:12:31;3;1;
39955;PMS5003;25631;51.516;-0.470;2023-12-22T07:15:07;2;1;
39955;PMS5003;25631;51.516;-0.470;2023-12-22T07:17:44;6;6;
39955;PMS5003;25631;51.516;-0.470;2023-12-22T07:20:20;7;6;
39955;PMS5003;25631;51.516;-0.470;2023-12-22T07:22:57;4;3;
39955;PMS5003;25631;51.516;-0.470;2023-12-22T07:25:35;5;2;
39955;PMS5003;25631;51.516;-0.470;2023-12-22T07:28:12;5;3;
39955;PMS5003;25631;51.516;-0.470;2023-12-22T07:30:48;4;3;
39955;PMS5003;25631;51.516;-0.470;2023-12-22T07:33:25;4;2;
39955;PMS5003;25631;51.516;-0.470;2023-12-22T07:36:01;4;3;
39955;PMS5003;25631;51.516;-0.470;2023-12-22T07:38:38;8;5;
39955;PMS5003;25631;51.516;-0.470;2023-12-22T07:41:14;9;6;
39955;PMS5003;25631;51.516;-0.470;2023-12-22T07:43:51;7;6;
39955;PMS5003;25631;51.516;-0.470;2023-12-22T07:46:27;5;4;
39955;PMS5003;25631;51.516;-0.470;2023-12-22T07:49:04;3;2;
39955;PMS5003;25631;51.516;-0.470;2023-12-22T07:51:40;12;6;
39955;PMS5003;25631;51.516;-0.470;2023-12-22T07:54:17;10;7;
39955;PMS5003;25631;51.516;-0.470;2023-12-22T07:56:55;8;3;
39955;PMS5003;25631;51.516;-0.470;2023-12-22T07:59:31;8;3;
39955;PMS5003;25631;51.516;-0.470;2023-12-22T08:02:07;8;3;
39955;PMS5003;25631;51.516;-0.470;2023-12-22T08:04:44;5;2;
39955;PMS5003;25631;51.516;-0.470;2023-12-22T08:07:21;4;4;
39955;PMS5003;25631;51.516;-0.470;2023-12-22T08:09:57;5;5;
39955;PMS5003;25631;51.516;-0.470;2023-12-22T08:12:33;12;6;
39955;PMS5003;25631;51.516;-0.470;2023-12-22T08:15:10;12;5;
39955;PMS5003;25631;51.516;-0.470;2023-12-22T08:17:46;13;8;
39955;PMS5003;25631;51.516;-0.470;2023-12-22T08:20:23;12;8;
39955;PMS5003;25631;51.516;-0.470;2023-12-22T08:23:00;11;8;
39955;PMS5003;25631;51.516;-0.470;2023-12-22T08:25:37;12;9;
39955;PMS5003;25631;51.516;-0.470;2023-12-22T08:28:13;16;13;
39955;PMS5003;25631;51.516;-0.470;2023-12-22T08:30:50;12;8;
39955;PMS5003;25631;51.516;-0.470;2023-12-22T08:33:26;11;9;
39955;PMS5003;25631;51.516;-0.470;2023-12-22T08:36:03;11;8;
39955;PMS5003;25631;51.516;-0.470;2023-12-22T08:38:40;5;4;
39955;PMS5003;25631;51.516;-0.470;2023-12-22T08:41:16;4;3;
39955;PMS5003;25631;51.516;-0.470;2023-12-22T08:43:53;4;3;
39955;PMS5003;25631;51.516;-0.470;2023-12-22T08:46:29;10;6;
39955;PMS5003;25631;51.516;-0.470;2023-12-22T08:49:06;13;7;
39955;PMS5003;25631;51.516;-0.470;2023-12-22T08:51:42;13;6;
39955;PMS5003;25631;51.516;-0.470;2023-12-22T08:54:19;8;5;
39955;PMS5003;25631;51.516;-0.470;2023-12-22T08:56:55;9;7;
39955;PMS5003;25631;51.516;-0.470;2023-12-22T08:59:32;12;9;
39955;PMS5003;25631;51.516;-0.470;2023-12-22T09:02:08;11;7;
39955;PMS5003;25631;51.516;-0.470;2023-12-22T09:04:45;10;6;
39955;PMS5003;25631;51.516;-0.470;2023-12-22T09:07:21;8;6;
39955;PMS5003;25631;51.516;-0.470;2023-12-22T09:09:58;8;5;
39955;PMS5003;25631;51.516;-0.470;2023-12-22T09:12:34;11;9;
39955;PMS5003;25631;51.516;-0.470;2023-12-22T09:15:10;12;10;
39955;PMS5003;25631;51.516;-0.470;2023-12-22T09:17:47;11;9;
39955;PMS5003;25631;51.516;-0.470;2023-12-22T09:20:23;13;9;
39955;PMS5003;25631;51.516;-0.470;2023-12-22T09:23:00;14;9;
39955;PMS5003;25631;51.516;-0.470;2023-12-22T09:25:36;15;11;
39955;PMS5003;25631;51.516;-0.470;2023-12-22T09:28:13;12;8;
39955;PMS5003;25631;51.516;-0.470;2023-12-22T09:30:49;10;6;
39955;PMS5003;25631;51.516;-0.470;2023-12-22T09:33:25;9;5;
39955;PMS5003;25631;51.516;-0.470;2023-12-22T09:36:02;9;5;
39955;PMS5003;25631;51.516;-0.470;2023-12-22T09:38:39;9;5;
39955;PMS5003;25631;51.516;-0.470;2023-12-22T09:41:16;9;5;
39955;PMS5003;25631;51.516;-0.470;2023-12-22T09:43:52;6;4;
39955;PMS5003;25631;51.516;-0.470;2023-12-22T09:46:33;12;9;
39955;PMS5003;25631;51.516;-0.470;2023-12-22T09:49:11;12;9;
39955;PMS5003;25631;51.516;-0.470;2023-12-22T09:51:49;14;6;
39955;PMS5003;25631;51.516;-0.470;2023-12-22T09:54:26;13;5;
39955;PMS5003;25631;51.516;-0.470;2023-12-22T09:57:02;9;4;
39955;PMS5003;25631;51.516;-0.470;2023-12-22T09:59:40;7;4;
39955;PMS5003;25631;51.516;-0.470;2023-12-22T10:02:17;6;4;
39955;PMS5003;25631;51.516;-0.470;2023-12-22T10:04:54;6;4;
39955;PMS5003;25631;51.516;-0.470;2023-12-22T10:07:31;12;7;
39955;PMS5003;25631;51.516;-0.470;2023-12-22T10:10:07;9;8;
39955;PMS5003;25631;51.516;-0.470;2023-12-22T10:12:44;6;5;
39955;PMS5003;25631;51.516;-0.470;2023-12-22T10:15:21;7;5;
39955;PMS5003;25631;51.516;-0.470;2023-12-22T10:17:58;6;4;
39955;PMS5003;25631;51.516;-0.470;2023-12-22T10:20:35;12;8;
39955;PMS5003;25631;51.516;-0.470;2023-12-22T10:23:11;10;8;
39955;PMS5003;25631;51.516;-0.470;2023-12-22T10:25:48;16;13;
39955;PMS5003;25631;51.516;-0.470;2023-12-22T10:28:27;16;12;
39955;PMS5003;25631;51.516;-0.470;2023-12-22T10:31:03;15;10;
39955;PMS5003;25631;51.516;-0.470;2023-12-22T10:33:40;15;11;
39955;PMS5003;25631;51.516;-0.470;2023-12-22T10:36:19;10;9;
39955;PMS5003;25631;51.516;-0.470;2023-12-22T10:38:56;7;7;
39955;PMS5003;25631;51.516;-0.470;2023-12-22T10:41:32;9;6;
39955;PMS5003;25631;51.516;-0.470;2023-12-22T10:44:09;9;6;
39955;PMS5003;25631;51.516;-0.470;2023-12-22T10:46:46;10;5;
39955;PMS5003;25631;51.516;-0.470;2023-12-22T10:49:24;9;5;
39955;PMS5003;25631;51.516;-0.470;2023-12-22T10:52:00;10;5;
39955;PMS5003;25631;51.516;-0.470;2023-12-22T10:54:37;4;4;
39955;PMS5003;25631;51.516;-0.470;2023-12-22T10:57:16;9;4;
39955;PMS5003;25631;51.516;-0.470;2023-12-22T10:59:53;5;5;
39955;PMS5003;25631;51.516;-0.470;2023-12-22T11:02:32;5;4;
39955;PMS5003;25631;51.516;-0.470;2023-12-22T11:05:11;6;4;
39955;PMS5003;25631;51.516;-0.470;2023-12-22T11:07:48;14;12;
39955;PMS5003;25631;51.516;-0.470;2023-12-22T11:10:25;15;11;
39955;PMS5003;25631;51.516;-0.470;2023-12-22T11:13:03;16;12;
39955;PMS5003;25631;51.516;-0.470;2023-12-22T11:15:40;9;8;
39955;PMS5003;25631;51.516;-0.470;2023-12-22T11:18:19;11;9;
39955;PMS5003;25631;51.516;-0.470;2023-12-22T11:20:56;8;6;
39955;PMS5003;25631;51.516;-0.470;2023-12-22T11:23:33;8;5;
39955;PMS5003;25631;51.516;-0.470;2023-12-22T11:26:11;7;5;
39955;PMS5003;25631;51.516;-0.470;2023-12-22T11:28:49;3;2;
39955;PMS5003;25631;51.516;-0.470;2023-12-22T11:31:27;5;3;
39955;PMS5003;25631;51.516;-0.470;2023-12-22T11:34:07;7;3;
39955;PMS5003;25631;51.516;-0.470;2023-12-22T11:36:44;7;3;
39955;PMS5003;25631;51.516;-0.470;2023-12-22T11:39:23;7;3;
39955;PMS5003;25631;51.516;-0.470;2023-12-22T11:41:59;7;3;
39955;PMS5003;25631;51.516;-0.470;2023-12-22T11:44:36;8;4;
39955;PMS5003;25631;51.516;-0.470;2023-12-22T11:47:13;14;5;
39955;PMS5003;25631;51.516;-0.470;2023-12-22T11:49:50;13;7;
39955;PMS5003;25631;51.516;-0.470;2023-12-22T11:52:27;11;5;
39955;PMS5003;25631;51.516;-0.470;2023-12-22T11:55:04;12;8;
39955;PMS5003;25631;51.516;-0.470;2023-12-22T11:57:41;15;10;
39955;PMS5003;25631;51.516;-0.470;2023-12-22T12:00:37;11;9;
39955;PMS5003;25631;51.516;-0.470;2023-12-22T12:03:15;10;10;
39955;PMS5003;25631;51.516;-0.470;2023-12-22T12:06:02;10;8;
39955;PMS5003;25631;51.516;-0.470;2023-12-22T12:08:46;10;8;
39955;PMS5003;25631;51.516;-0.470;2023-12-22T12:11:23;15;13;
39955;PMS5003;25631;51.516;-0.470;2023-12-22T12:14:44;5;3;
39955;PMS5003;25631;51.516;-0.470;2023-12-22T12:17:27;5;3;
39955;PMS5003;25631;51.516;-0.470;2023-12-22T12:20:09;5;4;
39955;PMS5003;25631;51.516;-0.470;2023-12-22T12:22:51;8;6;
39955;PMS5003;25631;51.516;-0.470;2023-12-22T12:25:29;9;6;
39955;PMS5003;25631;51.516;-0.470;2023-12-22T12:28:08;10;8;
39955;PMS5003;25631;51.516;-0.470;2023-12-22T12:30:56;8;7;
39955;PMS5003;25631;51.516;-0.470;2023-12-22T12:33:36;6;6;
39955;PMS5003;25631;51.516;-0.470;2023-12-22T12:36:13;8;4;
39955;PMS5003;25631;51.516;-0.470;2023-12-22T12:38:53;5;4;
39955;PMS5003;25631;51.516;-0.470;2023-12-22T12:41:36;11;5;
39955;PMS5003;25631;51.516;-0.470;2023-12-22T12:44:16;9;5;
39955;PMS5003;25631;51.516;-0.470;2023-12-22T12:46:54;9;5;
39955;PMS5003;25631;51.516;-0.470;2023-12-22T12:49:30;11;8;
39955;PMS5003;25631;51.516;-0.470;2023-12-22T12:52:11;12;9;
39955;PMS5003;25631;51.516;-0.470;2023-12-22T12:54:52;6;5;
39955;PMS5003;25631;51.516;-0.470;2023-12-22T12:57:29;6;5;
39955;PMS5003;25631;51.516;-0.470;2023-12-22T13:00:06;6;5;
39955;PMS5003;25631;51.516;-0.470;2023-12-22T13:02:43;2;2;
39955;PMS5003;25631;51.516;-0.470;2023-12-22T13:05:20;2;2;
39955;PMS5003;25631;51.516;-0.470;2023-12-22T13:08:06;4;2;
39955;PMS5003;25631;51.516;-0.470;2023-12-22T13:10:43;4;2;
39955;PMS5003;25631;51.516;-0.470;2023-12-22T13:13:19;3;3;
39955;PMS5003;25631;51.516;-0.470;2023-12-22T13:15:56;2;2;
39955;PMS5003;25631;51.516;-0.470;2023-12-22T13:18:32;2;1;
39955;PMS5003;25631;51.516;-0.470;2023-12-22T13:21:09;1;1;
39955;PMS5003;25631;51.516;-0.470;2023-12-22T13:23:46;2;2;
39955;PMS5003;25631;51.516;-0.470;2023-12-22T13:26:23;4;4;
39955;PMS5003;25631;51.516;-0.470;2023-12-22T13:29:00;8;5;
39955;PMS5003;25631;51.516;-0.470;2023-12-22T13:31:37;7;5;
39955;PMS5003;25631;51.516;-0.470;2023-12-22T13:34:15;7;6;
39955;PMS5003;25631;51.516;-0.470;2023-12-22T13:36:51;4;3;
39955;PMS5003;25631;51.516;-0.470;2023-12-22T13:39:28;4;3;
39955;PMS5003;25631;51.516;-0.470;2023-12-22T13:42:04;1;1;
39955;PMS5003;25631;51.516;-0.470;2023-12-22T13:44:42;2;1;
39955;PMS5003;25631;51.516;-0.470;2023-12-22T13:47:19;3;2;
39955;PMS5003;25631;51.516;-0.470;2023-12-22T13:49:55;2;2;
39955;PMS5003;25631;51.516;-0.470;2023-12-22T13:52:32;2;1;
39955;PMS5003;25631;51.516;-0.470;2023-12-22T13:55:09;2;2;
39955;PMS5003;25631;51.516;-0.470;2023-12-22T13:57:46;2;2;
39955;PMS5003;25631;51.516;-0.470;2023-12-22T14:00:26;3;3;
39955;PMS5003;25631;51.516;-0.470;2023-12-22T14:03:04;1;1;
39955;PMS5003;25631;51.516;-0.470;2023-12-22T14:05:40;1;1;
39955;PMS5003;25631;51.516;-0.470;2023-12-22T14:08:16;1;1;
39955;PMS5003;25631;51.516;-0.470;2023-12-22T14:10:53;1;1;
39955;PMS5003;25631;51.516;-0.470;2023-12-22T14:13:29;1;1;
39955;PMS5003;25631;51.516;-0.470;2023-12-22T14:16:06;2;2;
39955;PMS5003;25631;51.516;-0.470;2023-12-22T14:18:42;1;1;
39955;PMS5003;25631;51.516;-0.470;2023-12-22T14:21:19;2;1;
39955;PMS5003;25631;51.516;-0.470;2023-12-22T14:23:55;3;2;
39955;PMS5003;25631;51.516;-0.470;2023-12-22T14:26:32;3;2;
39955;PMS5003;25631;51.516;-0.470;2023-12-22T14:29:08;3;2;
39955;PMS5003;25631;51.516;-0.470;2023-12-22T14:31:44;3;1;
39955;PMS5003;25631;51.516;-0.470;2023-12-22T14:34:21;4;2;
39955;PMS5003;25631;51.516;-0.470;2023-12-22T14:36:57;1;0;
39955;PMS5003;25631;51.516;-0.470;2023-12-22T14:39:33;1;1;
39955;PMS5003;25631;51.516;-0.470;2023-12-22T14:42:10;2;1;
39955;PMS5003;25631;51.516;-0.470;2023-12-22T14:44:47;1;1;
39955;PMS5003;25631;51.516;-0.470;2023-12-22T14:47:23;0;0;
39955;PMS5003;25631;51.516;-0.470;2023-12-22T14:50:00;2;2;
39955;PMS5003;25631;51.516;-0.470;2023-12-22T14:52:36;2;2;
39955;PMS5003;25631;51.516;-0.470;2023-12-22T14:55:12;2;2;
39955;PMS5003;25631;51.516;-0.470;2023-12-22T14:57:49;22;22;
39955;PMS5003;25631;51.516;-0.470;2023-12-22T15:00:25;21;21;
39955;PMS5003;25631;51.516;-0.470;2023-12-22T15:03:02;21;21;
39955;PMS5003;25631;51.516;-0.470;2023-12-22T15:05:38;1;1;
39955;PMS5003;25631;51.516;-0.470;2023-12-22T15:08:15;1;1;
39955;PMS5003;25631;51.516;-0.470;2023-12-22T15:10:51;1;1;
39955;PMS5003;25631;51.516;-0.470;2023-12-22T15:13:28;1;1;
39955;PMS5003;25631;51.516;-0.470;2023-12-22T15:16:04;1;1;
39955;PMS5003;25631;51.516;-0.470;2023-12-22T15:18:41;2;2;
39955;PMS5003;25631;51.516;-0.470;2023-12-22T15:21:19;2;1;
39955;PMS5003;25631;51.516;-0.470;2023-12-22T15:23:55;0;0;
39955;PMS5003;25631;51.516;-0.470;2023-12-22T15:26:32;0;0;
39955;PMS5003;25631;51.516;-0.470;2023-12-22T15:29:08;1;1;
39955;PMS5003;25631;51.516;-0.470;2023-12-22T15:31:46;2;1;
39955;PMS5003;25631;51.516;-0.470;2023-12-22T15:34:23;0;0;
39955;PMS5003;25631;51.516;-0.470;2023-12-22T15:36:59;0;0;
39955;PMS5003;25631;51.516;-0.470;2023-12-22T15:39:36;0;0;
39955;PMS5003;25631;51.516;-0.470;2023-12-22T15:42:12;1;1;
39955;PMS5003;25631;51.516;-0.470;2023-12-22T15:44:48;1;0;
39955;PMS5003;25631;51.516;-0.470;2023-12-22T15:47:25;0;0;
39955;PMS5003;25631;51.516;-0.470;2023-12-22T15:50:01;1;1;
39955;PMS5003;25631;51.516;-0.470;2023-12-22T15:52:38;1;1;
39955;PMS5003;25631;51.516;-0.470;2023-12-22T15:55:15;1;1;
39955;PMS5003;25631;51.516;-0.470;2023-12-22T15:57:52;0;0;
39955;PMS5003;25631;51.516;-0.470;2023-12-22T16:00:28;2;2;
39955;PMS5003;25631;51.516;-0.470;2023-12-22T16:03:05;1;1;
39955;PMS5003;25631;51.516;-0.470;2023-12-22T16:05:41;4;3;
39955;PMS5003;25631;51.516;-0.470;2023-12-22T16:08:18;5;3;
39955;PMS5003;25631;51.516;-0.470;2023-12-22T16:10:54;2;2;
39955;PMS5003;25631;51.516;-0.470;2023-12-22T16:13:31;2;2;
39955;PMS5003;25631;51.516;-0.470;2023-12-22T16:16:08;3;3;
39955;PMS5003;25631;51.516;-0.470;2023-12-22T16:18:44;4;3;
39955;PMS5003;25631;51.516;-0.470;2023-12-22T16:21:21;8;6;
39955;PMS5003;25631;51.516;-0.470;2023-12-22T16:23:57;12;9;
39955;PMS5003;25631;51.516;-0.470;2023-12-22T16:26:33;9;9;
39955;PMS5003;25631;51.516;-0.470;2023-12-22T16:29:10;7;7;
39955;PMS5003;25631;51.516;-0.470;2023-12-22T16:31:46;4;3;
39955;PMS5003;25631;51.516;-0.470;2023-12-22T16:34:22;2;2;
39955;PMS5003;25631;51.516;-0.470;2023-12-22T16:36:59;4;3;
39955;PMS5003;25631;51.516;-0.470;2023-12-22T16:39:38;5;3;
39955;PMS5003;25631;51.516;-0.470;2023-12-22T16:42:24;5;4;
39955;PMS5003;25631;51.516;-0.470;2023-12-22T16:45:01;9;5;
39955;PMS5003;25631;51.516;-0.470;2023-12-22T16:47:37;10;5;
39955;PMS5003;25631;51.516;-0.470;2023-12-22T16:50:14;7;4;
39955;PMS5003;25631;51.516;-0.470;2023-12-22T16:52:50;7;7;
39955;PMS5003;25631;51.516;-0.470;2023-12-22T16:55:26;10;10;
39955;PMS5003;25631;51.516;-0.470;2023-12-22T16:58:03;11;10;
39955;PMS5003;25631;51.516;-0.470;2023-12-22T17:00:40;9;5;
39955;PMS5003;25631;51.516;-0.470;2023-12-22T17:03:16;11;6;
39955;PMS5003;25631;51.516;-0.470;2023-12-22T17:05:53;9;6;
39955;PMS5003;25631;51.516;-0.470;2023-12-22T17:08:29;7;4;
39955;PMS5003;25631;51.516;-0.470;2023-12-22T17:11:05;5;3;
39955;PMS5003;25631;51.516;-0.470;2023-12-22T17:13:42;9;6;
39955;PMS5003;25631;51.516;-0.470;2023-12-22T17:16:18;12;7;
39955;PMS5003;25631;51.516;-0.470;2023-12-22T17:18:54;11;9;
39955;PMS5003;25631;51.516;-0.470;2023-12-22T17:21:31;12;9;
39955;PMS5003;25631;51.516;-0.470;2023-12-22T17:24:07;8;7;
39955;PMS5003;25631;51.516;-0.470;2023-12-22T17:26:44;9;8;
39955;PMS5003;25631;51.516;-0.470;2023-12-22T17:29:20;11;7;
39955;PMS5003;25631;51.516;-0.470;2023-12-22T17:31:57;13;8;
39955;PMS5003;25631;51.516;-0.470;2023-12-22T17:34:33;11;5;
39955;PMS5003;25631;51.516;-0.470;2023-12-22T17:37:10;8;5;